This is the latest recevied weather packets stored in our database for station/object KO4ILY. If no packets are shown the sender has not sent any weather packets the latest 10 day(s).
| Time | Temp. | Humidity | Pressure | Rain* | Wind** | Luminosity | Snow |
|---|---|---|---|---|---|---|---|
| 1777507205 | 21.67° C | 73% | 1010.2 hPa | 0 mm | - | - | - |
| 1777503605 | 23.33° C | 71% | 1009.5 hPa | 0 mm | - | - | - |
| 1777500006 | 25° C | 66% | 1009.4 hPa | 0 mm | - | - | - |
| 1777496405 | 26.11° C | 63% | 1009.2 hPa | 0 mm | - | - | - |
| 1777492805 | 26.67° C | 63% | 1010 hPa | 0 mm | - | - | - |
| 1777489205 | 26.11° C | 69% | 1010.8 hPa | 0 mm | - | - | - |
| 1777485605 | 23.89° C | 76% | 1011.3 hPa | 0 mm | - | - | - |
| 1777482006 | 22.22° C | 80% | 1012.3 hPa | 0 mm | - | - | - |
| 1777478405 | 20.56° C | 84% | 1012.8 hPa | 0 mm | - | - | - |
| 1777474805 | 18.89° C | 88% | 1013.3 hPa | 0 mm | - | - | - |
| 1777471205 | 17.78° C | 91% | 1013.5 hPa | 0 mm | - | - | - |
| 1777467606 | 17.22° C | 88% | 1013.2 hPa | 0 mm | - | - | - |
| 1777464005 | 16.67° C | 90% | 1013.4 hPa | 0 mm | - | - | - |
| 1777460406 | 16.11° C | 91% | 1014.1 hPa | 0 mm | - | - | - |
| 1777456805 | 15.56° C | 96% | 1012.6 hPa | 0 mm | - | - | - |
| 1777453206 | 16.67° C | 94% | 1012.8 hPa | 0.76 mm | - | - | - |
| 1777449606 | 16.67° C | 93% | 1014.7 hPa | 10.92 mm | - | - | - |
| 1777446006 | 17.22° C | 91% | 1015.2 hPa | 10.16 mm | - | - | - |
| 1777442405 | 17.22° C | 89% | 1015.8 hPa | 3.3 mm | - | - | - |
| 1777438805 | 17.78° C | 87% | 1014.5 hPa | 0 mm | - | - | - |
| 1777435206 | 18.33° C | 86% | 1014.8 hPa | 0 mm | - | - | - |
| 1777431605 | 18.89° C | 84% | 1014.5 hPa | 0 mm | - | - | - |
| 1777428005 | 19.44° C | 81% | 1017.2 hPa | 0 mm | - | - | - |
| 1777424406 | 20° C | 79% | 1017.8 hPa | 0 mm | - | - | - |
| 1777420806 | 20° C | 80% | 1017.2 hPa | 0 mm | - | - | - |
* Rain latest hour (hover to see other rain measurements)
** Current wind speed in m/s (hover to see current wind gust speed)